Terminal Aerodrome Forecast
Issued by NWS

Home | Current Version | Previous Version | Text Only | Print | Product List | Glossary Off
Versions: 1 2 3 4 5 6 7 8 9 10 11 12 13 14 15 16

874
FTUS42 KMHX 092335
TAFPGV
TAF
KPGV 092335Z 1000/1024 30005KT P6SM BKN008 OVC012
      TEMPO 1004/1008 BKN015
     FM100800 29008KT P6SM SKC
      AMD LTD TO CLD VIS AND WIND=

USA.gov is the U.S. government's official web portal to all federal, state and local government web resources and services.